sensor_id;sensor_type;location;lat;lon;timestamp;temperature;humidity
28677;DHT22;15858;48.338;11.078;2023-12-22T00:00:40;5.00;99.90
28677;DHT22;15858;48.338;11.078;2023-12-22T00:03:06;4.50;99.90
28677;DHT22;15858;48.338;11.078;2023-12-22T00:05:34;4.20;99.90
28677;DHT22;15858;48.338;11.078;2023-12-22T00:08:01;4.10;99.90
28677;DHT22;15858;48.338;11.078;2023-12-22T00:10:27;4.10;99.90
28677;DHT22;15858;48.338;11.078;2023-12-22T00:12:54;4.10;99.90
28677;DHT22;15858;48.338;11.078;2023-12-22T00:15:21;4.00;99.90
28677;DHT22;15858;48.338;11.078;2023-12-22T00:17:47;4.00;99.90
28677;DHT22;15858;48.338;11.078;2023-12-22T00:20:15;3.90;99.90
28677;DHT22;15858;48.338;11.078;2023-12-22T00:22:41;3.90;99.90
28677;DHT22;15858;48.338;11.078;2023-12-22T00:25:08;3.90;99.90
28677;DHT22;15858;48.338;11.078;2023-12-22T00:27:35;3.80;99.90
28677;DHT22;15858;48.338;11.078;2023-12-22T00:30:01;3.90;99.90
28677;DHT22;15858;48.338;11.078;2023-12-22T00:32:28;3.90;99.90
28677;DHT22;15858;48.338;11.078;2023-12-22T00:34:55;3.80;99.90
28677;DHT22;15858;48.338;11.078;2023-12-22T00:37:22;3.90;99.90
28677;DHT22;15858;48.338;11.078;2023-12-22T00:39:48;3.90;99.90
28677;DHT22;15858;48.338;11.078;2023-12-22T00:42:15;3.80;99.90
28677;DHT22;15858;48.338;11.078;2023-12-22T00:44:42;3.90;99.90
28677;DHT22;15858;48.338;11.078;2023-12-22T00:47:08;3.90;99.90
28677;DHT22;15858;48.338;11.078;2023-12-22T00:49:35;3.90;99.90
28677;DHT22;15858;48.338;11.078;2023-12-22T00:52:02;3.70;99.90
28677;DHT22;15858;48.338;11.078;2023-12-22T00:54:28;3.80;99.90
28677;DHT22;15858;48.338;11.078;2023-12-22T00:56:55;3.70;99.90
28677;DHT22;15858;48.338;11.078;2023-12-22T00:59:21;3.70;99.90
28677;DHT22;15858;48.338;11.078;2023-12-22T01:01:48;3.80;99.90
28677;DHT22;15858;48.338;11.078;2023-12-22T01:04:15;3.80;99.90
28677;DHT22;15858;48.338;11.078;2023-12-22T01:06:42;3.80;99.90
28677;DHT22;15858;48.338;11.078;2023-12-22T01:09:09;3.80;99.90
28677;DHT22;15858;48.338;11.078;2023-12-22T01:11:35;3.90;99.90
28677;DHT22;15858;48.338;11.078;2023-12-22T01:14:02;3.90;99.90
28677;DHT22;15858;48.338;11.078;2023-12-22T01:16:29;3.90;99.90
28677;DHT22;15858;48.338;11.078;2023-12-22T01:18:55;3.70;99.90
28677;DHT22;15858;48.338;11.078;2023-12-22T01:21:22;3.80;99.90
28677;DHT22;15858;48.338;11.078;2023-12-22T01:23:49;3.80;99.90
28677;DHT22;15858;48.338;11.078;2023-12-22T01:26:15;3.70;99.90
28677;DHT22;15858;48.338;11.078;2023-12-22T01:28:42;3.80;99.90
28677;DHT22;15858;48.338;11.078;2023-12-22T01:31:09;3.80;99.90
28677;DHT22;15858;48.338;11.078;2023-12-22T01:33:35;3.70;99.90
28677;DHT22;15858;48.338;11.078;2023-12-22T01:36:02;3.60;99.90
28677;DHT22;15858;48.338;11.078;2023-12-22T01:38:29;3.60;99.90
28677;DHT22;15858;48.338;11.078;2023-12-22T01:40:56;3.50;99.90
28677;DHT22;15858;48.338;11.078;2023-12-22T01:43:22;3.50;99.90
28677;DHT22;15858;48.338;11.078;2023-12-22T01:45:54;3.40;99.90
28677;DHT22;15858;48.338;11.078;2023-12-22T01:48:22;3.40;99.90
28677;DHT22;15858;48.338;11.078;2023-12-22T01:50:51;3.30;99.90
28677;DHT22;15858;48.338;11.078;2023-12-22T01:53:20;3.20;99.90
28677;DHT22;15858;48.338;11.078;2023-12-22T01:55:50;3.20;99.90
28677;DHT22;15858;48.338;11.078;2023-12-22T01:58:19;3.30;99.90
28677;DHT22;15858;48.338;11.078;2023-12-22T02:00:46;3.20;99.90
28677;DHT22;15858;48.338;11.078;2023-12-22T02:03:13;3.10;99.90
28677;DHT22;15858;48.338;11.078;2023-12-22T02:05:41;3.10;99.90
28677;DHT22;15858;48.338;11.078;2023-12-22T02:08:08;3.00;99.90
28677;DHT22;15858;48.338;11.078;2023-12-22T02:10:36;2.90;99.90
28677;DHT22;15858;48.338;11.078;2023-12-22T02:13:04;2.90;99.90
28677;DHT22;15858;48.338;11.078;2023-12-22T02:15:32;2.80;99.90
28677;DHT22;15858;48.338;11.078;2023-12-22T02:18:04;2.90;99.90
28677;DHT22;15858;48.338;11.078;2023-12-22T02:20:33;2.80;99.90
28677;DHT22;15858;48.338;11.078;2023-12-22T02:23:00;2.80;99.90
28677;DHT22;15858;48.338;11.078;2023-12-22T02:25:26;2.80;99.90
28677;DHT22;15858;48.338;11.078;2023-12-22T02:27:58;2.80;99.90
28677;DHT22;15858;48.338;11.078;2023-12-22T02:30:46;2.80;99.90
28677;DHT22;15858;48.338;11.078;2023-12-22T02:33:22;2.80;99.90
28677;DHT22;15858;48.338;11.078;2023-12-22T02:35:50;2.80;99.90
28677;DHT22;15858;48.338;11.078;2023-12-22T02:38:18;2.80;99.90
28677;DHT22;15858;48.338;11.078;2023-12-22T02:40:45;2.80;99.90
28677;DHT22;15858;48.338;11.078;2023-12-22T02:43:12;2.80;99.90
28677;DHT22;15858;48.338;11.078;2023-12-22T02:45:39;2.80;99.90
28677;DHT22;15858;48.338;11.078;2023-12-22T02:48:06;2.80;99.90
28677;DHT22;15858;48.338;11.078;2023-12-22T02:50:33;2.90;99.90
28677;DHT22;15858;48.338;11.078;2023-12-22T02:52:59;2.90;99.90
28677;DHT22;15858;48.338;11.078;2023-12-22T02:55:26;3.00;99.90
28677;DHT22;15858;48.338;11.078;2023-12-22T02:57:52;3.00;99.90
28677;DHT22;15858;48.338;11.078;2023-12-22T03:00:19;3.00;99.90
28677;DHT22;15858;48.338;11.078;2023-12-22T03:02:46;3.00;99.90
28677;DHT22;15858;48.338;11.078;2023-12-22T03:05:12;3.00;99.90
28677;DHT22;15858;48.338;11.078;2023-12-22T03:07:39;3.00;99.90
28677;DHT22;15858;48.338;11.078;2023-12-22T03:10:06;3.10;99.90
28677;DHT22;15858;48.338;11.078;2023-12-22T03:12:33;3.10;99.90
28677;DHT22;15858;48.338;11.078;2023-12-22T03:14:59;3.10;99.90
28677;DHT22;15858;48.338;11.078;2023-12-22T03:17:27;3.10;99.90
28677;DHT22;15858;48.338;11.078;2023-12-22T03:19:53;3.10;99.90
28677;DHT22;15858;48.338;11.078;2023-12-22T03:22:20;3.10;99.90
28677;DHT22;15858;48.338;11.078;2023-12-22T03:24:47;3.10;99.90
28677;DHT22;15858;48.338;11.078;2023-12-22T03:27:13;3.10;99.90
28677;DHT22;15858;48.338;11.078;2023-12-22T03:29:40;3.20;99.90
28677;DHT22;15858;48.338;11.078;2023-12-22T03:32:06;3.20;99.90
28677;DHT22;15858;48.338;11.078;2023-12-22T03:34:33;3.30;99.90
28677;DHT22;15858;48.338;11.078;2023-12-22T03:37:00;3.20;99.90
28677;DHT22;15858;48.338;11.078;2023-12-22T03:39:26;3.30;99.90
28677;DHT22;15858;48.338;11.078;2023-12-22T03:41:53;3.40;99.90
28677;DHT22;15858;48.338;11.078;2023-12-22T03:44:20;3.60;99.90
28677;DHT22;15858;48.338;11.078;2023-12-22T03:46:50;3.80;99.90
28677;DHT22;15858;48.338;11.078;2023-12-22T03:49:17;4.00;99.90
28677;DHT22;15858;48.338;11.078;2023-12-22T03:51:44;4.10;99.90
28677;DHT22;15858;48.338;11.078;2023-12-22T03:54:10;4.30;99.90
28677;DHT22;15858;48.338;11.078;2023-12-22T03:56:37;4.40;99.90
28677;DHT22;15858;48.338;11.078;2023-12-22T03:59:04;4.40;99.90
28677;DHT22;15858;48.338;11.078;2023-12-22T04:01:30;4.50;99.90
28677;DHT22;15858;48.338;11.078;2023-12-22T04:03:57;4.60;99.90
28677;DHT22;15858;48.338;11.078;2023-12-22T04:06:24;4.70;99.90
28677;DHT22;15858;48.338;11.078;2023-12-22T04:08:50;4.70;99.90
28677;DHT22;15858;48.338;11.078;2023-12-22T04:11:17;4.70;99.90
28677;DHT22;15858;48.338;11.078;2023-12-22T04:13:43;4.80;99.90
28677;DHT22;15858;48.338;11.078;2023-12-22T04:16:10;4.80;99.90
28677;DHT22;15858;48.338;11.078;2023-12-22T04:18:38;4.90;99.90
28677;DHT22;15858;48.338;11.078;2023-12-22T04:21:05;4.90;99.90
28677;DHT22;15858;48.338;11.078;2023-12-22T04:23:31;5.00;99.90
28677;DHT22;15858;48.338;11.078;2023-12-22T04:25:58;5.10;99.90
28677;DHT22;15858;48.338;11.078;2023-12-22T04:28:25;5.10;99.90
28677;DHT22;15858;48.338;11.078;2023-12-22T04:30:51;5.10;99.90
28677;DHT22;15858;48.338;11.078;2023-12-22T04:33:18;5.10;99.90
28677;DHT22;15858;48.338;11.078;2023-12-22T04:35:45;5.10;99.90
28677;DHT22;15858;48.338;11.078;2023-12-22T04:38:11;5.10;99.90
28677;DHT22;15858;48.338;11.078;2023-12-22T04:40:38;5.10;99.90
28677;DHT22;15858;48.338;11.078;2023-12-22T04:43:05;5.10;99.90
28677;DHT22;15858;48.338;11.078;2023-12-22T04:45:31;5.10;99.90
28677;DHT22;15858;48.338;11.078;2023-12-22T04:47:58;5.20;99.90
28677;DHT22;15858;48.338;11.078;2023-12-22T04:50:25;5.30;99.90
28677;DHT22;15858;48.338;11.078;2023-12-22T04:52:51;5.30;99.90
28677;DHT22;15858;48.338;11.078;2023-12-22T04:55:18;5.30;99.90
28677;DHT22;15858;48.338;11.078;2023-12-22T04:57:45;5.30;99.90
28677;DHT22;15858;48.338;11.078;2023-12-22T05:00:12;5.40;99.90
28677;DHT22;15858;48.338;11.078;2023-12-22T05:02:39;5.40;99.90
28677;DHT22;15858;48.338;11.078;2023-12-22T05:05:06;5.50;99.90
28677;DHT22;15858;48.338;11.078;2023-12-22T05:07:33;5.50;99.90
28677;DHT22;15858;48.338;11.078;2023-12-22T05:10:00;5.50;99.90
28677;DHT22;15858;48.338;11.078;2023-12-22T05:12:27;5.60;99.90
28677;DHT22;15858;48.338;11.078;2023-12-22T05:14:53;5.60;99.90
28677;DHT22;15858;48.338;11.078;2023-12-22T05:17:20;5.60;99.90
28677;DHT22;15858;48.338;11.078;2023-12-22T05:19:47;5.60;99.90
28677;DHT22;15858;48.338;11.078;2023-12-22T05:22:13;5.70;99.90
28677;DHT22;15858;48.338;11.078;2023-12-22T05:24:40;5.60;99.90
28677;DHT22;15858;48.338;11.078;2023-12-22T05:27:07;5.70;99.90
28677;DHT22;15858;48.338;11.078;2023-12-22T05:29:33;5.80;99.90
28677;DHT22;15858;48.338;11.078;2023-12-22T05:32:00;5.70;99.90
28677;DHT22;15858;48.338;11.078;2023-12-22T05:34:27;5.70;99.90
28677;DHT22;15858;48.338;11.078;2023-12-22T05:36:54;5.60;99.90
28677;DHT22;15858;48.338;11.078;2023-12-22T05:39:20;5.40;99.90
28677;DHT22;15858;48.338;11.078;2023-12-22T05:41:47;5.30;99.90
28677;DHT22;15858;48.338;11.078;2023-12-22T05:44:14;5.20;99.90
28677;DHT22;15858;48.338;11.078;2023-12-22T05:46:40;5.10;99.90
28677;DHT22;15858;48.338;11.078;2023-12-22T05:49:07;5.00;99.90
28677;DHT22;15858;48.338;11.078;2023-12-22T05:51:38;4.90;99.90
28677;DHT22;15858;48.338;11.078;2023-12-22T05:54:06;4.80;99.90
28677;DHT22;15858;48.338;11.078;2023-12-22T05:56:33;4.80;99.90
28677;DHT22;15858;48.338;11.078;2023-12-22T05:59:00;4.80;99.90
28677;DHT22;15858;48.338;11.078;2023-12-22T06:01:26;4.70;99.90
28677;DHT22;15858;48.338;11.078;2023-12-22T06:03:53;4.70;99.90
28677;DHT22;15858;48.338;11.078;2023-12-22T06:06:20;4.80;99.90
28677;DHT22;15858;48.338;11.078;2023-12-22T06:08:47;4.80;99.90
28677;DHT22;15858;48.338;11.078;2023-12-22T06:11:14;4.80;99.90
28677;DHT22;15858;48.338;11.078;2023-12-22T06:13:40;4.80;99.90
28677;DHT22;15858;48.338;11.078;2023-12-22T06:16:14;4.80;99.90
28677;DHT22;15858;48.338;11.078;2023-12-22T06:18:41;4.80;99.90
28677;DHT22;15858;48.338;11.078;2023-12-22T06:21:09;4.80;99.90
28677;DHT22;15858;48.338;11.078;2023-12-22T06:23:36;4.80;99.90
28677;DHT22;15858;48.338;11.078;2023-12-22T06:26:12;4.70;99.90
28677;DHT22;15858;48.338;11.078;2023-12-22T06:28:39;4.70;99.90
28677;DHT22;15858;48.338;11.078;2023-12-22T06:31:09;4.70;99.90
28677;DHT22;15858;48.338;11.078;2023-12-22T06:33:42;4.80;99.90
28677;DHT22;15858;48.338;11.078;2023-12-22T06:36:21;4.80;99.90
28677;DHT22;15858;48.338;11.078;2023-12-22T06:38:48;4.90;99.90
28677;DHT22;15858;48.338;11.078;2023-12-22T06:41:30;4.90;99.90
28677;DHT22;15858;48.338;11.078;2023-12-22T06:43:57;5.00;99.90
28677;DHT22;15858;48.338;11.078;2023-12-22T06:46:25;5.10;99.90
28677;DHT22;15858;48.338;11.078;2023-12-22T06:48:52;5.20;99.90
28677;DHT22;15858;48.338;11.078;2023-12-22T06:51:20;5.30;99.90
28677;DHT22;15858;48.338;11.078;2023-12-22T06:53:48;5.30;99.90
28677;DHT22;15858;48.338;11.078;2023-12-22T06:56:19;5.30;99.90
28677;DHT22;15858;48.338;11.078;2023-12-22T06:58:47;5.40;99.90
28677;DHT22;15858;48.338;11.078;2023-12-22T07:01:31;5.40;99.90
28677;DHT22;15858;48.338;11.078;2023-12-22T07:03:58;5.40;99.90
28677;DHT22;15858;48.338;11.078;2023-12-22T07:06:26;5.30;99.90
28677;DHT22;15858;48.338;11.078;2023-12-22T07:11:42;5.20;99.90
28677;DHT22;15858;48.338;11.078;2023-12-22T07:14:09;5.20;99.90
28677;DHT22;15858;48.338;11.078;2023-12-22T07:16:38;5.10;99.90
28677;DHT22;15858;48.338;11.078;2023-12-22T07:19:05;5.10;99.90
28677;DHT22;15858;48.338;11.078;2023-12-22T07:21:32;5.10;99.90
28677;DHT22;15858;48.338;11.078;2023-12-22T07:23:58;5.10;99.90
28677;DHT22;15858;48.338;11.078;2023-12-22T07:26:27;5.00;99.90
28677;DHT22;15858;48.338;11.078;2023-12-22T07:28:54;5.00;99.90
28677;DHT22;15858;48.338;11.078;2023-12-22T07:31:21;5.00;99.90
28677;DHT22;15858;48.338;11.078;2023-12-22T07:33:48;5.10;99.90
28677;DHT22;15858;48.338;11.078;2023-12-22T07:36:15;5.10;99.90
28677;DHT22;15858;48.338;11.078;2023-12-22T07:38:42;5.10;99.90
28677;DHT22;15858;48.338;11.078;2023-12-22T07:41:08;5.20;99.90
28677;DHT22;15858;48.338;11.078;2023-12-22T07:43:37;5.30;99.90
28677;DHT22;15858;48.338;11.078;2023-12-22T07:46:04;5.30;99.90
28677;DHT22;15858;48.338;11.078;2023-12-22T07:48:31;5.40;99.90
28677;DHT22;15858;48.338;11.078;2023-12-22T07:50:57;5.40;99.90
28677;DHT22;15858;48.338;11.078;2023-12-22T07:53:24;5.40;99.90
28677;DHT22;15858;48.338;11.078;2023-12-22T07:55:51;5.40;99.90
28677;DHT22;15858;48.338;11.078;2023-12-22T07:58:17;5.40;99.90
28677;DHT22;15858;48.338;11.078;2023-12-22T08:00:44;5.20;99.90
28677;DHT22;15858;48.338;11.078;2023-12-22T08:03:11;5.20;99.90
28677;DHT22;15858;48.338;11.078;2023-12-22T08:05:37;5.30;99.90
28677;DHT22;15858;48.338;11.078;2023-12-22T08:08:04;5.30;99.90
28677;DHT22;15858;48.338;11.078;2023-12-22T08:10:31;5.30;99.90
28677;DHT22;15858;48.338;11.078;2023-12-22T08:12:58;5.30;99.90
28677;DHT22;15858;48.338;11.078;2023-12-22T08:15:25;5.30;99.90
28677;DHT22;15858;48.338;11.078;2023-12-22T08:18:02;5.30;99.90
28677;DHT22;15858;48.338;11.078;2023-12-22T08:20:29;5.30;99.90
28677;DHT22;15858;48.338;11.078;2023-12-22T08:23:02;5.20;99.90
28677;DHT22;15858;48.338;11.078;2023-12-22T08:25:35;5.20;99.90
28677;DHT22;15858;48.338;11.078;2023-12-22T08:28:02;5.20;99.90
28677;DHT22;15858;48.338;11.078;2023-12-22T08:30:29;5.20;99.90
28677;DHT22;15858;48.338;11.078;2023-12-22T08:32:56;5.20;99.90
28677;DHT22;15858;48.338;11.078;2023-12-22T08:35:23;5.20;99.90
28677;DHT22;15858;48.338;11.078;2023-12-22T08:37:50;5.30;99.90
28677;DHT22;15858;48.338;11.078;2023-12-22T08:40:17;5.40;99.90
28677;DHT22;15858;48.338;11.078;2023-12-22T08:42:44;5.40;99.90
28677;DHT22;15858;48.338;11.078;2023-12-22T08:45:11;5.40;99.90
28677;DHT22;15858;48.338;11.078;2023-12-22T08:47:37;5.40;99.90
28677;DHT22;15858;48.338;11.078;2023-12-22T08:50:04;5.50;99.90
28677;DHT22;15858;48.338;11.078;2023-12-22T08:52:31;5.50;99.90
28677;DHT22;15858;48.338;11.078;2023-12-22T08:54:58;5.50;99.90
28677;DHT22;15858;48.338;11.078;2023-12-22T08:57:25;5.50;99.90
28677;DHT22;15858;48.338;11.078;2023-12-22T08:59:52;5.50;99.90
28677;DHT22;15858;48.338;11.078;2023-12-22T09:02:18;5.50;99.90
28677;DHT22;15858;48.338;11.078;2023-12-22T09:04:45;5.50;99.90
28677;DHT22;15858;48.338;11.078;2023-12-22T09:07:12;5.60;99.90
28677;DHT22;15858;48.338;11.078;2023-12-22T09:09:39;5.50;99.90
28677;DHT22;15858;48.338;11.078;2023-12-22T09:12:05;5.60;99.90
28677;DHT22;15858;48.338;11.078;2023-12-22T09:14:32;5.60;99.90
28677;DHT22;15858;48.338;11.078;2023-12-22T09:16:59;5.60;99.90
28677;DHT22;15858;48.338;11.078;2023-12-22T09:19:26;5.60;99.90
28677;DHT22;15858;48.338;11.078;2023-12-22T09:21:52;5.60;99.90
28677;DHT22;15858;48.338;11.078;2023-12-22T09:24:19;5.60;99.90
28677;DHT22;15858;48.338;11.078;2023-12-22T09:26:46;5.70;99.90
28677;DHT22;15858;48.338;11.078;2023-12-22T09:29:13;5.60;99.90
28677;DHT22;15858;48.338;11.078;2023-12-22T09:31:39;5.70;99.90
28677;DHT22;15858;48.338;11.078;2023-12-22T09:34:06;5.70;99.90
28677;DHT22;15858;48.338;11.078;2023-12-22T09:36:33;5.70;99.90
28677;DHT22;15858;48.338;11.078;2023-12-22T09:39:00;5.70;99.90
28677;DHT22;15858;48.338;11.078;2023-12-22T09:41:27;5.70;99.90
28677;DHT22;15858;48.338;11.078;2023-12-22T09:43:56;5.60;99.90
28677;DHT22;15858;48.338;11.078;2023-12-22T09:46:25;5.50;99.90
28677;DHT22;15858;48.338;11.078;2023-12-22T09:48:52;5.50;99.90
28677;DHT22;15858;48.338;11.078;2023-12-22T09:51:20;5.40;99.90
28677;DHT22;15858;48.338;11.078;2023-12-22T09:53:47;5.40;99.90
28677;DHT22;15858;48.338;11.078;2023-12-22T09:56:17;5.40;99.90
28677;DHT22;15858;48.338;11.078;2023-12-22T09:58:45;5.30;99.90
28677;DHT22;15858;48.338;11.078;2023-12-22T10:01:12;5.20;99.90
28677;DHT22;15858;48.338;11.078;2023-12-22T10:03:41;5.10;99.90
28677;DHT22;15858;48.338;11.078;2023-12-22T10:06:10;5.00;99.90
28677;DHT22;15858;48.338;11.078;2023-12-22T10:08:38;4.90;99.90
28677;DHT22;15858;48.338;11.078;2023-12-22T10:11:06;4.90;99.90
28677;DHT22;15858;48.338;11.078;2023-12-22T10:13:33;4.80;99.90
28677;DHT22;15858;48.338;11.078;2023-12-22T10:16:04;4.80;99.90
28677;DHT22;15858;48.338;11.078;2023-12-22T10:18:32;4.80;99.90
28677;DHT22;15858;48.338;11.078;2023-12-22T10:21:00;4.80;99.90
28677;DHT22;15858;48.338;11.078;2023-12-22T10:23:26;4.80;99.90
28677;DHT22;15858;48.338;11.078;2023-12-22T10:25:53;4.90;99.90
28677;DHT22;15858;48.338;11.078;2023-12-22T10:28:19;4.80;99.90
28677;DHT22;15858;48.338;11.078;2023-12-22T10:30:46;4.80;99.90
28677;DHT22;15858;48.338;11.078;2023-12-22T10:33:14;4.70;99.90
28677;DHT22;15858;48.338;11.078;2023-12-22T10:35:41;4.70;99.90
28677;DHT22;15858;48.338;11.078;2023-12-22T10:38:08;4.70;99.90
28677;DHT22;15858;48.338;11.078;2023-12-22T10:40:37;4.70;99.90
28677;DHT22;15858;48.338;11.078;2023-12-22T10:43:04;4.70;99.90
28677;DHT22;15858;48.338;11.078;2023-12-22T10:45:31;4.70;99.90
28677;DHT22;15858;48.338;11.078;2023-12-22T10:47:59;4.70;99.90
28677;DHT22;15858;48.338;11.078;2023-12-22T10:50:28;4.70;99.90
28677;DHT22;15858;48.338;11.078;2023-12-22T10:52:54;4.70;99.90
28677;DHT22;15858;48.338;11.078;2023-12-22T10:55:21;4.80;99.90
28677;DHT22;15858;48.338;11.078;2023-12-22T10:57:48;4.90;99.90
28677;DHT22;15858;48.338;11.078;2023-12-22T11:00:15;5.00;99.90
28677;DHT22;15858;48.338;11.078;2023-12-22T11:02:43;5.00;99.90
28677;DHT22;15858;48.338;11.078;2023-12-22T11:05:14;5.20;99.90
28677;DHT22;15858;48.338;11.078;2023-12-22T11:07:48;5.40;99.90
28677;DHT22;15858;48.338;11.078;2023-12-22T11:10:20;5.50;99.90
28677;DHT22;15858;48.338;11.078;2023-12-22T11:12:47;5.50;99.90
28677;DHT22;15858;48.338;11.078;2023-12-22T11:15:15;5.60;99.90
28677;DHT22;15858;48.338;11.078;2023-12-22T11:17:43;5.60;99.90
28677;DHT22;15858;48.338;11.078;2023-12-22T11:20:13;5.60;99.90
28677;DHT22;15858;48.338;11.078;2023-12-22T11:22:40;5.60;99.90
28677;DHT22;15858;48.338;11.078;2023-12-22T11:25:08;5.60;99.90
28677;DHT22;15858;48.338;11.078;2023-12-22T11:27:38;5.60;99.90
28677;DHT22;15858;48.338;11.078;2023-12-22T11:30:05;5.60;99.90
28677;DHT22;15858;48.338;11.078;2023-12-22T11:32:33;5.60;99.90
28677;DHT22;15858;48.338;11.078;2023-12-22T11:35:00;5.60;99.90
28677;DHT22;15858;48.338;11.078;2023-12-22T11:37:29;5.60;99.90
28677;DHT22;15858;48.338;11.078;2023-12-22T11:39:57;5.60;99.90
28677;DHT22;15858;48.338;11.078;2023-12-22T11:42:28;5.60;99.90
28677;DHT22;15858;48.338;11.078;2023-12-22T11:44:55;5.60;99.90
28677;DHT22;15858;48.338;11.078;2023-12-22T11:47:23;5.60;99.90
28677;DHT22;15858;48.338;11.078;2023-12-22T11:49:50;5.60;99.90
28677;DHT22;15858;48.338;11.078;2023-12-22T11:52:18;5.60;99.90
28677;DHT22;15858;48.338;11.078;2023-12-22T11:54:46;5.60;99.90
28677;DHT22;15858;48.338;11.078;2023-12-22T11:57:32;5.60;99.90
28677;DHT22;15858;48.338;11.078;2023-12-22T12:00:04;5.60;99.90
28677;DHT22;15858;48.338;11.078;2023-12-22T12:02:33;5.60;99.90
28677;DHT22;15858;48.338;11.078;2023-12-22T12:05:00;5.60;99.90
28677;DHT22;15858;48.338;11.078;2023-12-22T12:10:09;5.70;99.90
28677;DHT22;15858;48.338;11.078;2023-12-22T12:12:36;5.70;99.90
28677;DHT22;15858;48.338;11.078;2023-12-22T12:15:16;5.70;99.90
28677;DHT22;15858;48.338;11.078;2023-12-22T12:17:43;5.70;99.90
28677;DHT22;15858;48.338;11.078;2023-12-22T12:20:11;5.70;99.90
28677;DHT22;15858;48.338;11.078;2023-12-22T12:22:38;5.70;99.90
28677;DHT22;15858;48.338;11.078;2023-12-22T12:25:11;5.70;99.90
28677;DHT22;15858;48.338;11.078;2023-12-22T12:28:01;5.70;99.90
28677;DHT22;15858;48.338;11.078;2023-12-22T12:30:29;5.70;99.90
28677;DHT22;15858;48.338;11.078;2023-12-22T12:32:59;5.70;99.90
28677;DHT22;15858;48.338;11.078;2023-12-22T12:35:33;5.70;99.90
28677;DHT22;15858;48.338;11.078;2023-12-22T12:38:00;5.70;99.90
28677;DHT22;15858;48.338;11.078;2023-12-22T12:40:27;5.70;99.90
28677;DHT22;15858;48.338;11.078;2023-12-22T12:42:54;5.70;99.90
28677;DHT22;15858;48.338;11.078;2023-12-22T12:45:24;5.80;99.90
28677;DHT22;15858;48.338;11.078;2023-12-22T12:48:02;5.80;99.90
28677;DHT22;15858;48.338;11.078;2023-12-22T12:50:32;5.80;99.90
28677;DHT22;15858;48.338;11.078;2023-12-22T12:53:00;5.80;99.90
28677;DHT22;15858;48.338;11.078;2023-12-22T12:55:27;5.80;99.90
28677;DHT22;15858;48.338;11.078;2023-12-22T12:57:55;5.80;99.90
28677;DHT22;15858;48.338;11.078;2023-12-22T13:00:28;5.80;99.90
28677;DHT22;15858;48.338;11.078;2023-12-22T13:02:56;5.80;99.90
28677;DHT22;15858;48.338;11.078;2023-12-22T13:05:23;5.70;99.90
28677;DHT22;15858;48.338;11.078;2023-12-22T13:07:51;5.70;99.90
28677;DHT22;15858;48.338;11.078;2023-12-22T13:10:25;5.70;99.90
28677;DHT22;15858;48.338;11.078;2023-12-22T13:12:52;5.60;99.90
28677;DHT22;15858;48.338;11.078;2023-12-22T13:15:18;5.60;99.90
28677;DHT22;15858;48.338;11.078;2023-12-22T13:17:46;5.60;99.90
28677;DHT22;15858;48.338;11.078;2023-12-22T13:20:13;5.60;99.90
28677;DHT22;15858;48.338;11.078;2023-12-22T13:22:40;5.60;99.90
28677;DHT22;15858;48.338;11.078;2023-12-22T13:25:07;5.60;99.90
28677;DHT22;15858;48.338;11.078;2023-12-22T13:27:52;5.60;99.90
28677;DHT22;15858;48.338;11.078;2023-12-22T13:30:36;5.60;99.90
28677;DHT22;15858;48.338;11.078;2023-12-22T13:33:03;5.60;99.90
28677;DHT22;15858;48.338;11.078;2023-12-22T13:35:30;5.60;99.90
28677;DHT22;15858;48.338;11.078;2023-12-22T13:37:58;5.70;99.90
28677;DHT22;15858;48.338;11.078;2023-12-22T13:40:25;5.70;99.90
28677;DHT22;15858;48.338;11.078;2023-12-22T13:42:56;5.70;99.90
28677;DHT22;15858;48.338;11.078;2023-12-22T13:45:26;5.70;99.90
28677;DHT22;15858;48.338;11.078;2023-12-22T13:47:53;5.70;99.90
28677;DHT22;15858;48.338;11.078;2023-12-22T13:50:20;5.70;99.90
28677;DHT22;15858;48.338;11.078;2023-12-22T13:52:47;5.80;99.90
28677;DHT22;15858;48.338;11.078;2023-12-22T13:55:15;5.80;99.90
28677;DHT22;15858;48.338;11.078;2023-12-22T13:57:42;5.80;99.90
28677;DHT22;15858;48.338;11.078;2023-12-22T14:02:48;5.80;99.90
28677;DHT22;15858;48.338;11.078;2023-12-22T14:05:16;5.90;99.90
28677;DHT22;15858;48.338;11.078;2023-12-22T14:07:43;5.90;99.90
28677;DHT22;15858;48.338;11.078;2023-12-22T14:10:11;5.90;99.90
28677;DHT22;15858;48.338;11.078;2023-12-22T14:12:38;6.00;99.90
28677;DHT22;15858;48.338;11.078;2023-12-22T14:15:09;6.00;99.90
28677;DHT22;15858;48.338;11.078;2023-12-22T14:17:37;6.10;99.90
28677;DHT22;15858;48.338;11.078;2023-12-22T14:20:04;6.10;99.90
28677;DHT22;15858;48.338;11.078;2023-12-22T14:22:31;6.10;99.90
28677;DHT22;15858;48.338;11.078;2023-12-22T14:24:58;6.10;99.90
28677;DHT22;15858;48.338;11.078;2023-12-22T14:27:24;6.10;99.90
28677;DHT22;15858;48.338;11.078;2023-12-22T14:29:51;6.20;99.90
28677;DHT22;15858;48.338;11.078;2023-12-22T14:32:18;6.20;99.90
28677;DHT22;15858;48.338;11.078;2023-12-22T14:34:45;6.20;99.90
28677;DHT22;15858;48.338;11.078;2023-12-22T14:37:12;6.20;99.90
28677;DHT22;15858;48.338;11.078;2023-12-22T14:39:39;6.30;99.90
28677;DHT22;15858;48.338;11.078;2023-12-22T14:42:06;6.20;99.90
28677;DHT22;15858;48.338;11.078;2023-12-22T14:44:32;6.30;99.90
28677;DHT22;15858;48.338;11.078;2023-12-22T14:46:59;6.20;99.90
28677;DHT22;15858;48.338;11.078;2023-12-22T14:49:26;6.30;99.90
28677;DHT22;15858;48.338;11.078;2023-12-22T14:51:53;6.30;99.90
28677;DHT22;15858;48.338;11.078;2023-12-22T14:54:20;6.30;99.90
28677;DHT22;15858;48.338;11.078;2023-12-22T14:56:46;6.40;99.90
28677;DHT22;15858;48.338;11.078;2023-12-22T14:59:13;6.40;99.90
28677;DHT22;15858;48.338;11.078;2023-12-22T15:01:40;6.40;99.90
28677;DHT22;15858;48.338;11.078;2023-12-22T15:04:07;6.40;99.90
28677;DHT22;15858;48.338;11.078;2023-12-22T15:06:41;6.50;99.90
28677;DHT22;15858;48.338;11.078;2023-12-22T15:09:08;6.50;99.90
28677;DHT22;15858;48.338;11.078;2023-12-22T15:11:43;6.50;99.90
28677;DHT22;15858;48.338;11.078;2023-12-22T15:14:13;6.50;99.90
28677;DHT22;15858;48.338;11.078;2023-12-22T15:16:43;6.40;99.90
28677;DHT22;15858;48.338;11.078;2023-12-22T15:19:13;6.50;99.90
28677;DHT22;15858;48.338;11.078;2023-12-22T15:21:41;6.50;99.90
28677;DHT22;15858;48.338;11.078;2023-12-22T15:24:07;6.50;99.90
28677;DHT22;15858;48.338;11.078;2023-12-22T15:26:34;6.50;99.90
28677;DHT22;15858;48.338;11.078;2023-12-22T15:29:01;6.60;99.90
28677;DHT22;15858;48.338;11.078;2023-12-22T15:33:58;6.60;99.90
28677;DHT22;15858;48.338;11.078;2023-12-22T15:36:25;6.60;99.90
28677;DHT22;15858;48.338;11.078;2023-12-22T15:38:51;6.60;99.90
28677;DHT22;15858;48.338;11.078;2023-12-22T15:41:18;6.60;99.90
28677;DHT22;15858;48.338;11.078;2023-12-22T15:43:45;6.60;99.90